createdAt,value
2022-07-25T00:02:22.966Z,14.80
2022-07-25T00:04:53.920Z,14.80
2022-07-25T00:07:24.059Z,14.80
2022-07-25T00:09:53.490Z,14.80
2022-07-25T00:12:23.506Z,14.80
2022-07-25T00:14:53.732Z,14.80
2022-07-25T00:17:23.235Z,14.80
2022-07-25T00:19:54.279Z,14.70
2022-07-25T00:22:24.538Z,14.70
2022-07-25T00:24:54.235Z,14.70
2022-07-25T00:27:23.601Z,14.70
2022-07-25T00:29:53.735Z,14.60
2022-07-25T00:32:23.166Z,14.60
2022-07-25T00:34:54.506Z,14.60
2022-07-25T00:37:25.499Z,14.60
2022-07-25T00:39:54.869Z,14.50
2022-07-25T00:42:24.815Z,14.50
2022-07-25T00:44:54.843Z,14.40
2022-07-25T00:47:24.539Z,14.50
2022-07-25T00:49:55.575Z,14.40
2022-07-25T00:52:26.312Z,14.30
2022-07-25T00:54:57.752Z,14.20
2022-07-25T00:57:28.229Z,14.20
2022-07-25T00:59:57.610Z,14.30
2022-07-25T01:02:27.056Z,14.30
2022-07-25T01:04:59.098Z,14.40
2022-07-25T01:07:28.895Z,14.30
2022-07-25T01:09:59.288Z,14.30
2022-07-25T01:12:29.032Z,14.30
2022-07-25T01:14:58.926Z,14.40
2022-07-25T01:17:28.549Z,14.30
2022-07-25T01:19:59.518Z,14.30
2022-07-25T01:22:30.496Z,14.30
2022-07-25T01:25:00.735Z,14.20
2022-07-25T01:27:30.543Z,14.20
2022-07-25T01:30:00.279Z,14.10
2022-07-25T01:32:30.401Z,14.10
2022-07-25T01:34:59.942Z,14.10
2022-07-25T01:37:30.833Z,14.10
2022-07-25T01:40:01.543Z,14.00
2022-07-25T01:42:31.177Z,13.90
2022-07-25T01:45:01.003Z,14.00
2022-07-25T01:47:31.721Z,14.00
2022-07-25T01:50:01.019Z,14.00
2022-07-25T01:52:32.260Z,14.00
2022-07-25T01:55:02.551Z,14.00
2022-07-25T01:57:32.312Z,14.10
2022-07-25T02:00:01.829Z,14.10
2022-07-25T02:02:32.194Z,14.00
2022-07-25T02:05:01.847Z,14.00
2022-07-25T02:07:32.831Z,14.10
2022-07-25T02:10:03.197Z,14.10
2022-07-25T02:12:32.806Z,14.10
2022-07-25T02:15:02.449Z,14.00
2022-07-25T02:17:32.420Z,14.00
2022-07-25T02:20:01.758Z,14.00
2022-07-25T02:22:33.000Z,13.90
2022-07-25T02:25:03.195Z,13.90
2022-07-25T02:27:32.562Z,14.00
2022-07-25T02:30:02.403Z,13.90
2022-07-25T02:32:32.566Z,14.00
2022-07-25T02:35:02.271Z,13.90
2022-07-25T02:37:33.223Z,13.90
2022-07-25T02:40:03.311Z,14.00
2022-07-25T02:42:32.935Z,13.90
2022-07-25T02:45:02.989Z,13.90
2022-07-25T02:47:32.757Z,14.00
2022-07-25T02:50:02.144Z,14.00
2022-07-25T02:52:33.084Z,14.00
2022-07-25T02:55:09.220Z,14.00
2022-07-25T02:57:39.618Z,14.00
2022-07-25T03:00:10.915Z,13.90
2022-07-25T03:02:40.585Z,14.00
2022-07-25T03:05:12.573Z,14.00
2022-07-25T03:07:44.065Z,14.00
2022-07-25T03:10:16.211Z,13.90
2022-07-25T03:12:46.518Z,14.10
2022-07-25T03:15:16.915Z,14.10
2022-07-25T03:17:46.281Z,14.20
2022-07-25T03:20:15.744Z,14.30
2022-07-25T03:22:47.302Z,14.40
2022-07-25T03:25:21.466Z,14.60
2022-07-25T03:27:53.081Z,14.70
2022-07-25T03:30:22.822Z,14.90
2022-07-25T03:32:53.156Z,15.00
2022-07-25T03:35:22.574Z,15.00
2022-07-25T03:37:53.550Z,15.10
2022-07-25T03:40:23.852Z,15.10
2022-07-25T03:42:56.224Z,15.20
2022-07-25T03:45:26.574Z,15.40
2022-07-25T03:47:56.531Z,15.40
2022-07-25T03:50:26.018Z,15.50
2022-07-25T03:52:57.810Z,15.60
2022-07-25T03:55:27.293Z,15.80
2022-07-25T03:57:57.338Z,15.90
2022-07-25T04:00:26.770Z,16.10
2022-07-25T04:02:57.034Z,16.40
2022-07-25T04:05:27.638Z,16.60
2022-07-25T04:07:58.449Z,16.80
2022-07-25T04:10:28.809Z,17.00
2022-07-25T04:12:58.455Z,17.10
2022-07-25T04:15:28.091Z,17.30
2022-07-25T04:18:01.298Z,17.50
2022-07-25T04:20:31.714Z,17.70
2022-07-25T04:23:02.828Z,17.80
2022-07-25T04:25:33.187Z,17.90
2022-07-25T04:28:02.698Z,18.00
2022-07-25T04:30:32.269Z,18.00
2022-07-25T04:33:02.110Z,18.20
2022-07-25T04:35:31.608Z,18.10
2022-07-25T04:38:02.494Z,18.20
2022-07-25T04:40:32.588Z,18.30
2022-07-25T04:43:01.931Z,18.40
2022-07-25T04:45:31.313Z,18.50
2022-07-25T04:48:01.421Z,18.50
2022-07-25T04:50:31.626Z,18.50
2022-07-25T04:53:02.478Z,18.50
2022-07-25T04:55:33.361Z,18.50
2022-07-25T04:58:02.752Z,18.50
2022-07-25T05:00:32.114Z,18.50
2022-07-25T05:03:02.349Z,18.50
2022-07-25T05:05:31.798Z,18.50
2022-07-25T05:08:03.269Z,18.60
2022-07-25T05:10:33.332Z,18.60
2022-07-25T05:13:02.913Z,18.70
2022-07-25T05:15:32.382Z,18.70
2022-07-25T05:18:02.695Z,18.80
2022-07-25T05:20:32.303Z,18.90
2022-07-25T05:23:03.312Z,19.10
2022-07-25T05:25:33.311Z,19.10
2022-07-25T05:28:03.278Z,19.20
2022-07-25T05:30:35.389Z,19.10
2022-07-25T05:33:09.419Z,19.10
2022-07-25T05:35:39.614Z,19.20
2022-07-25T05:38:10.378Z,19.20
2022-07-25T05:40:40.357Z,19.30
2022-07-25T05:43:10.302Z,19.30
2022-07-25T05:45:39.674Z,19.40
2022-07-25T05:48:09.942Z,19.60
2022-07-25T05:50:39.340Z,19.60
2022-07-25T05:53:10.514Z,19.70
2022-07-25T05:55:40.982Z,19.80
2022-07-25T05:58:11.218Z,19.90
2022-07-25T06:00:40.806Z,20.10
2022-07-25T06:03:10.341Z,20.10
2022-07-25T06:05:39.929Z,20.20
2022-07-25T06:08:11.464Z,20.30
2022-07-25T06:10:40.994Z,20.50
2022-07-25T06:13:10.955Z,20.50
2022-07-25T06:15:40.342Z,20.70
2022-07-25T06:18:10.178Z,20.70
2022-07-25T06:20:39.869Z,20.80
2022-07-25T06:23:10.697Z,20.90
2022-07-25T06:25:40.050Z,21.10
2022-07-25T06:28:12.016Z,21.10
2022-07-25T06:30:48.509Z,21.30
2022-07-25T06:33:18.942Z,21.30
2022-07-25T06:35:48.421Z,21.40
2022-07-25T06:38:19.291Z,21.50
2022-07-25T06:40:49.516Z,21.50
2022-07-25T06:43:19.192Z,21.60
2022-07-25T06:45:48.733Z,21.70
2022-07-25T06:48:19.382Z,21.80
2022-07-25T06:50:49.101Z,21.90
2022-07-25T06:53:21.103Z,22.00
2022-07-25T06:55:50.637Z,22.00
2022-07-25T06:58:22.810Z,22.00
2022-07-25T07:00:55.416Z,22.00
2022-07-25T07:03:25.499Z,22.20
2022-07-25T07:05:54.892Z,22.20
2022-07-25T07:08:25.727Z,22.30
2022-07-25T07:10:55.670Z,22.30
2022-07-25T07:13:25.445Z,22.30
2022-07-25T07:15:56.162Z,22.40
2022-07-25T07:18:26.338Z,22.50
2022-07-25T07:20:55.898Z,22.60
2022-07-25T07:23:27.366Z,22.70
2022-07-25T07:25:59.539Z,22.70
2022-07-25T07:28:29.394Z,22.60
2022-07-25T07:31:15.773Z,22.70
2022-07-25T07:33:46.871Z,22.80
2022-07-25T07:36:16.651Z,22.90
2022-07-25T07:38:48.870Z,22.80
2022-07-25T07:41:18.914Z,22.90
2022-07-25T07:43:48.313Z,22.90
2022-07-25T07:46:18.465Z,23.00
2022-07-25T07:48:48.564Z,23.20
2022-07-25T07:51:18.151Z,23.30
2022-07-25T07:54:06.693Z,23.30
2022-07-25T07:56:36.829Z,23.40
2022-07-25T07:59:06.943Z,23.30
2022-07-25T08:01:37.398Z,23.40
2022-07-25T08:04:08.163Z,23.40
2022-07-25T08:06:38.454Z,23.50
2022-07-25T08:09:09.992Z,23.60
2022-07-25T08:11:40.431Z,23.60
2022-07-25T08:14:10.280Z,23.70
2022-07-25T08:16:40.002Z,23.80
2022-07-25T08:19:10.377Z,23.80
2022-07-25T08:21:39.980Z,23.80
2022-07-25T08:24:11.233Z,23.90
2022-07-25T08:26:41.563Z,23.90
2022-07-25T08:29:19.062Z,24.10
2022-07-25T08:31:49.520Z,24.00
2022-07-25T08:34:19.814Z,24.10
2022-07-25T08:36:49.647Z,24.20
2022-07-25T08:39:21.372Z,24.30
2022-07-25T08:41:51.825Z,24.30
2022-07-25T08:44:22.282Z,24.40
2022-07-25T08:46:51.574Z,24.50
2022-07-25T08:49:21.439Z,24.60
2022-07-25T08:51:52.796Z,24.70
2022-07-25T08:54:24.761Z,24.70
2022-07-25T08:56:54.801Z,24.80
2022-07-25T08:59:24.185Z,24.70
2022-07-25T09:01:53.546Z,24.70
2022-07-25T09:04:23.951Z,24.60
2022-07-25T09:06:54.134Z,24.80
2022-07-25T09:09:34.993Z,24.90
2022-07-25T09:12:05.248Z,25.10
2022-07-25T09:14:43.869Z,25.10
2022-07-25T09:17:21.822Z,25.20
2022-07-25T09:19:56.517Z,25.30
2022-07-25T09:22:26.146Z,25.30
2022-07-25T09:24:57.560Z,25.30
2022-07-25T09:27:27.149Z,25.30
2022-07-25T09:29:56.905Z,25.30
2022-07-25T09:32:26.372Z,25.50
2022-07-25T09:34:55.720Z,25.60
2022-07-25T09:37:29.096Z,25.80
2022-07-25T09:40:00.294Z,25.70
2022-07-25T09:42:32.748Z,25.80
2022-07-25T09:45:10.230Z,25.80
2022-07-25T09:47:52.536Z,25.80
2022-07-25T09:50:23.824Z,25.80
2022-07-25T09:52:56.893Z,26.00
2022-07-25T09:55:28.215Z,26.10
2022-07-25T09:57:58.235Z,26.30
2022-07-25T10:00:30.569Z,26.40
2022-07-25T10:03:20.218Z,26.50
2022-07-25T10:06:15.125Z,26.50
2022-07-25T10:08:45.543Z,26.50
2022-07-25T10:11:24.021Z,26.30
2022-07-25T10:13:54.457Z,26.30
2022-07-25T10:16:25.359Z,26.40
2022-07-25T10:18:57.513Z,26.40
2022-07-25T10:21:29.553Z,26.50
2022-07-25T10:24:05.445Z,26.60
2022-07-25T10:26:39.198Z,26.40
2022-07-25T10:29:11.232Z,26.60
2022-07-25T10:31:50.343Z,26.60
2022-07-25T10:34:31.482Z,26.70
2022-07-25T10:37:11.838Z,26.80
2022-07-25T10:39:45.214Z,27.00
2022-07-25T10:42:23.150Z,27.10
2022-07-25T10:44:57.975Z,27.20
2022-07-25T10:47:30.201Z,27.40
2022-07-25T10:50:19.092Z,27.60
2022-07-25T10:53:00.628Z,27.70
2022-07-25T10:55:31.241Z,28.20
2022-07-25T10:58:17.685Z,28.30
2022-07-25T11:00:48.275Z,28.70
2022-07-25T11:03:18.715Z,29.20
2022-07-25T11:05:49.902Z,29.70
2022-07-25T11:08:22.951Z,30.20
2022-07-25T11:10:54.260Z,30.00
2022-07-25T11:13:25.123Z,30.40
2022-07-25T11:15:59.598Z,30.40
2022-07-25T11:18:36.823Z,31.00
2022-07-25T11:21:08.251Z,31.50
2022-07-25T11:23:38.655Z,31.50
2022-07-25T11:26:13.403Z,31.80
2022-07-25T11:28:46.324Z,32.20
2022-07-25T11:31:17.099Z,32.00
2022-07-25T11:33:49.723Z,32.40
2022-07-25T11:36:20.470Z,32.40
2022-07-25T11:38:51.600Z,33.40
2022-07-25T11:41:30.768Z,32.90
2022-07-25T11:44:01.605Z,32.20
2022-07-25T11:46:31.892Z,32.70
2022-07-25T11:49:09.338Z,32.90
2022-07-25T11:51:40.176Z,33.60
2022-07-25T11:54:13.524Z,33.30
2022-07-25T11:56:44.594Z,32.90
2022-07-25T11:59:15.461Z,33.10
2022-07-25T12:01:45.950Z,33.60
2022-07-25T12:04:17.439Z,34.10
2022-07-25T12:06:48.804Z,33.80
2022-07-25T12:09:20.749Z,33.10
2022-07-25T12:11:51.515Z,33.00
2022-07-25T12:14:22.334Z,33.10
2022-07-25T12:16:52.134Z,33.10
2022-07-25T12:19:22.341Z,33.10
2022-07-25T12:21:51.769Z,33.60
2022-07-25T12:24:21.887Z,33.40
2022-07-25T12:26:51.215Z,33.90
2022-07-25T12:29:22.098Z,34.40
2022-07-25T12:31:52.058Z,33.20
2022-07-25T12:34:21.515Z,33.00
2022-07-25T12:36:51.292Z,33.40
2022-07-25T12:39:21.371Z,34.20
2022-07-25T12:41:50.508Z,34.70
2022-07-25T12:44:20.067Z,35.00
2022-07-25T12:46:52.408Z,35.30
2022-07-25T12:49:22.319Z,35.20
2022-07-25T12:51:57.702Z,35.00
2022-07-25T12:54:27.651Z,34.70
2022-07-25T12:56:58.162Z,34.60
2022-07-25T12:59:27.976Z,34.30
2022-07-25T13:01:59.600Z,33.80
2022-07-25T13:04:29.198Z,33.50
2022-07-25T13:07:00.278Z,33.60
2022-07-25T13:09:30.956Z,33.00
2022-07-25T13:12:01.308Z,32.70
2022-07-25T13:14:30.777Z,33.20
2022-07-25T13:17:02.134Z,33.00
2022-07-25T13:19:32.585Z,32.90
2022-07-25T13:22:02.393Z,33.10
2022-07-25T13:24:32.069Z,33.30
2022-07-25T13:27:04.385Z,33.20
2022-07-25T13:29:33.950Z,33.50
2022-07-25T13:32:06.734Z,33.60
2022-07-25T13:34:36.136Z,33.00
2022-07-25T13:37:06.351Z,33.30
2022-07-25T13:39:36.066Z,33.40
2022-07-25T13:42:11.447Z,33.50
2022-07-25T13:44:41.402Z,33.50
2022-07-25T13:47:12.570Z,33.80
2022-07-25T13:49:43.265Z,33.90
2022-07-25T13:52:13.039Z,33.90
2022-07-25T13:54:43.310Z,33.50
2022-07-25T13:57:12.441Z,33.20
2022-07-25T13:59:42.074Z,32.90
2022-07-25T14:02:14.998Z,32.50
2022-07-25T14:04:45.147Z,31.70
2022-07-25T14:07:16.086Z,31.60
2022-07-25T14:09:45.718Z,31.90
2022-07-25T14:12:15.660Z,32.00
2022-07-25T14:14:45.560Z,32.20
2022-07-25T14:17:17.352Z,32.10
2022-07-25T14:19:47.592Z,32.60
2022-07-25T14:22:16.858Z,32.30
2022-07-25T14:24:46.359Z,32.10
2022-07-25T14:27:16.677Z,31.50
2022-07-25T14:29:46.077Z,31.20
2022-07-25T14:32:17.120Z,31.00
2022-07-25T14:34:47.566Z,30.40
2022-07-25T14:37:16.533Z,30.50
2022-07-25T14:39:47.313Z,30.70
2022-07-25T14:42:17.775Z,30.80
2022-07-25T14:44:46.915Z,31.00
2022-07-25T14:47:18.152Z,30.90
2022-07-25T14:49:48.274Z,31.20
2022-07-25T14:52:17.770Z,30.90
2022-07-25T14:54:47.726Z,30.90
2022-07-25T14:57:18.065Z,30.80
2022-07-25T14:59:47.463Z,30.90
2022-07-25T15:02:18.640Z,31.30
2022-07-25T15:04:48.758Z,31.70
2022-07-25T15:07:18.286Z,32.20
2022-07-25T15:09:47.770Z,32.40
2022-07-25T15:12:19.963Z,32.60
2022-07-25T15:14:50.021Z,32.80
2022-07-25T15:17:21.743Z,32.60
2022-07-25T15:19:51.939Z,32.80
2022-07-25T15:22:22.328Z,33.00
2022-07-25T15:25:23.059Z,33.10
2022-07-25T15:27:42.572Z,32.80
2022-07-25T15:30:13.117Z,32.30
2022-07-25T15:32:46.325Z,31.90
2022-07-25T15:35:16.128Z,31.60
2022-07-25T15:37:46.770Z,31.90
2022-07-25T15:40:16.457Z,31.90
2022-07-25T15:42:45.950Z,31.80
2022-07-25T15:45:32.535Z,31.50
2022-07-25T15:48:04.282Z,31.40
2022-07-25T15:50:34.984Z,31.20
2022-07-25T15:53:04.638Z,31.10
2022-07-25T15:55:34.504Z,31.30
2022-07-25T15:58:04.463Z,31.90
2022-07-25T16:00:34.497Z,32.20
2022-07-25T16:03:05.758Z,32.30
2022-07-25T16:05:36.430Z,32.20
2022-07-25T16:08:05.900Z,32.10
2022-07-25T16:10:36.491Z,31.70
2022-07-25T16:13:06.241Z,31.80
2022-07-25T16:15:35.433Z,32.10
2022-07-25T16:18:07.918Z,32.20
2022-07-25T16:20:37.317Z,32.30
2022-07-25T16:23:07.280Z,32.40
2022-07-25T16:25:36.720Z,31.70
2022-07-25T16:28:07.178Z,31.50
2022-07-25T16:30:37.389Z,31.40
2022-07-25T16:33:08.503Z,31.70
2022-07-25T16:35:38.674Z,31.90
2022-07-25T16:38:08.082Z,32.10
2022-07-25T16:40:37.708Z,32.40
2022-07-25T16:43:08.157Z,32.20
2022-07-25T16:45:37.826Z,32.50
2022-07-25T16:48:09.826Z,32.50
2022-07-25T16:50:39.409Z,32.70
2022-07-25T16:53:09.818Z,32.30
2022-07-25T16:55:39.286Z,32.20
2022-07-25T16:58:09.063Z,31.90
2022-07-25T17:00:38.749Z,32.10
2022-07-25T17:03:09.568Z,31.90
2022-07-25T17:05:39.148Z,31.60
2022-07-25T17:08:09.471Z,31.70
2022-07-25T17:10:39.104Z,31.50
2022-07-25T17:13:08.779Z,31.30
2022-07-25T17:15:39.189Z,31.00
2022-07-25T17:18:09.782Z,30.90
2022-07-25T17:20:39.887Z,30.60
2022-07-25T17:23:10.359Z,30.20
2022-07-25T17:25:41.869Z,30.50
2022-07-25T17:28:11.662Z,30.20
2022-07-25T17:30:41.865Z,30.20
2022-07-25T17:33:13.147Z,29.80
2022-07-25T17:35:43.389Z,29.70
2022-07-25T17:38:14.501Z,29.90
2022-07-25T17:40:44.858Z,29.80
2022-07-25T17:43:14.428Z,29.80
2022-07-25T17:45:43.966Z,29.50
2022-07-25T17:48:15.921Z,29.30
2022-07-25T17:50:45.652Z,29.40
2022-07-25T17:53:18.690Z,29.20
2022-07-25T17:55:49.145Z,29.00
2022-07-25T17:58:19.183Z,28.90
2022-07-25T18:00:49.123Z,28.90
2022-07-25T18:03:20.503Z,29.30
2022-07-25T18:05:50.961Z,29.50
2022-07-25T18:08:20.381Z,29.40
2022-07-25T18:10:50.216Z,29.30
2022-07-25T18:13:20.492Z,29.00
2022-07-25T18:15:50.677Z,28.80
2022-07-25T18:18:24.037Z,28.50
2022-07-25T18:20:53.466Z,28.30
2022-07-25T18:23:24.634Z,28.00
2022-07-25T18:25:54.550Z,27.80
2022-07-25T18:28:25.208Z,27.60
2022-07-25T18:30:55.430Z,27.40
2022-07-25T18:33:26.858Z,27.40
2022-07-25T18:35:56.759Z,27.20
2022-07-25T18:38:26.915Z,27.00
2022-07-25T18:41:12.560Z,26.90
2022-07-25T18:43:46.479Z,26.70
2022-07-25T18:46:17.818Z,26.60
2022-07-25T18:48:50.020Z,26.50
2022-07-25T18:51:19.583Z,26.50
2022-07-25T18:53:50.443Z,26.30
2022-07-25T18:56:19.858Z,26.20
2022-07-25T18:58:49.745Z,26.10
2022-07-25T19:01:19.408Z,26.00
2022-07-25T19:03:50.607Z,25.80
2022-07-25T19:06:21.094Z,25.70
2022-07-25T19:08:50.924Z,25.60
2022-07-25T19:11:22.249Z,25.50
2022-07-25T19:13:52.065Z,25.30
2022-07-25T19:16:22.739Z,25.30
2022-07-25T19:18:54.881Z,25.20
2022-07-25T19:21:24.847Z,25.20
2022-07-25T19:23:54.797Z,25.10
2022-07-25T19:26:24.567Z,25.00
2022-07-25T19:28:55.962Z,24.90
2022-07-25T19:31:25.535Z,24.80
2022-07-25T19:33:57.864Z,24.70
2022-07-25T19:36:27.599Z,24.60
2022-07-25T19:38:57.988Z,24.50
2022-07-25T19:41:27.767Z,24.50
2022-07-25T19:43:57.166Z,24.30
2022-07-25T19:46:31.486Z,24.20
2022-07-25T19:49:04.476Z,24.10
2022-07-25T19:51:35.089Z,24.10
2022-07-25T19:54:08.256Z,23.90
2022-07-25T19:56:38.709Z,23.90
2022-07-25T19:59:08.232Z,23.70
2022-07-25T20:01:39.677Z,23.70
2022-07-25T20:04:11.517Z,23.60
2022-07-25T20:06:41.542Z,23.50
2022-07-25T20:09:11.985Z,23.40
2022-07-25T20:11:41.899Z,23.40
2022-07-25T20:14:12.097Z,23.30
2022-07-25T20:16:41.995Z,23.20
2022-07-25T20:19:13.176Z,23.10
2022-07-25T20:21:43.319Z,23.00
2022-07-25T20:24:15.869Z,23.00
2022-07-25T20:26:49.870Z,22.90
2022-07-25T20:29:20.340Z,22.90
2022-07-25T20:31:53.170Z,22.90
2022-07-25T20:34:24.398Z,22.80
2022-07-25T20:36:54.869Z,22.80
2022-07-25T20:39:24.687Z,22.70
2022-07-25T20:41:54.394Z,22.60
2022-07-25T20:44:24.702Z,22.60
2022-07-25T20:46:54.676Z,22.50
2022-07-25T20:49:26.779Z,22.50
2022-07-25T20:51:56.313Z,22.40
2022-07-25T20:54:26.737Z,22.30
2022-07-25T20:56:56.327Z,22.20
2022-07-25T20:59:25.695Z,22.10
2022-07-25T21:01:56.187Z,22.00
2022-07-25T21:04:27.670Z,22.00
2022-07-25T21:06:58.077Z,21.90
2022-07-25T21:09:32.517Z,21.90
2022-07-25T21:12:03.889Z,21.80
2022-07-25T21:14:34.094Z,21.70
2022-07-25T21:17:05.540Z,21.70
2022-07-25T21:19:37.334Z,21.70
2022-07-25T21:22:07.700Z,21.60
2022-07-25T21:24:38.169Z,21.60
2022-07-25T21:27:08.324Z,21.60
2022-07-25T21:29:38.090Z,21.60
2022-07-25T21:32:09.163Z,21.60
2022-07-25T21:34:41.162Z,21.60
2022-07-25T21:37:11.311Z,21.60
2022-07-25T21:39:41.981Z,21.70
2022-07-25T21:42:12.095Z,21.60
2022-07-25T21:44:43.791Z,21.60
2022-07-25T21:47:15.141Z,21.60
2022-07-25T21:50:04.819Z,21.60
2022-07-25T21:52:35.430Z,21.60
2022-07-25T21:55:06.975Z,21.60
2022-07-25T21:57:36.550Z,21.50
2022-07-25T22:00:10.634Z,21.50
2022-07-25T22:02:40.254Z,21.50
2022-07-25T22:05:13.194Z,21.50
2022-07-25T22:07:43.335Z,21.60
2022-07-25T22:10:14.827Z,21.60
2022-07-25T22:12:44.962Z,21.50
2022-07-25T22:15:15.743Z,21.60
2022-07-25T22:17:49.748Z,21.50
2022-07-25T22:20:22.416Z,21.50
2022-07-25T22:22:52.066Z,21.50
2022-07-25T22:25:22.249Z,21.50
2022-07-25T22:27:51.862Z,21.60
2022-07-25T22:30:21.571Z,21.70
2022-07-25T22:32:51.754Z,21.60
2022-07-25T22:35:22.968Z,21.70
2022-07-25T22:37:53.023Z,21.70
2022-07-25T22:40:22.982Z,21.60
2022-07-25T22:42:52.470Z,21.60
2022-07-25T22:45:24.435Z,21.50
2022-07-25T22:47:54.225Z,21.70
2022-07-25T22:50:25.356Z,21.60
2022-07-25T22:52:55.005Z,21.60
2022-07-25T22:55:25.168Z,21.60
2022-07-25T22:57:54.625Z,21.60
2022-07-25T23:00:24.310Z,21.60
2022-07-25T23:02:54.437Z,21.60
2022-07-25T23:05:25.633Z,21.60
2022-07-25T23:07:55.874Z,21.60
2022-07-25T23:10:25.422Z,21.60
2022-07-25T23:12:55.006Z,21.60
2022-07-25T23:15:26.702Z,21.60
2022-07-25T23:18:14.834Z,21.60
2022-07-25T23:20:45.951Z,21.70
2022-07-25T23:23:15.455Z,21.60
2022-07-25T23:25:44.793Z,21.70
2022-07-25T23:28:15.173Z,21.70
2022-07-25T23:30:44.705Z,21.70
2022-07-25T23:33:14.506Z,21.80
2022-07-25T23:35:47.596Z,21.80
2022-07-25T23:38:17.252Z,21.80
2022-07-25T23:40:47.327Z,21.80
2022-07-25T23:43:17.633Z,21.80
2022-07-25T23:46:12.480Z,21.80
2022-07-25T23:48:42.594Z,21.80
2022-07-25T23:51:13.853Z,21.70
2022-07-25T23:53:43.154Z,21.60
2022-07-25T23:56:17.265Z,21.70
2022-07-25T23:58:50.341Z,21.70
